Time;durP1;ratioP1;P1;durP2;ratioP2;P2;SDS_P1;SDS_P2;PMS_P1;PMS_P2;Temp;Humidity;BMP_temperature;BMP_pressure;BME280_temperature;BME280_humidity;BME280_pressure;Samples;Min_cycle;Max_cycle;Signal;HPM_P1;HPM_P2
2023/06/12 00:01:24;;;;;;;7.90;4.82;;;;;;;;;;10308583;28;20072;-60
2023/06/12 00:06:24;;;;;;;9.10;5.18;;;;;;;;;;10309849;28;20080;-60
2023/06/12 00:11:22;;;;;;;12.23;4.65;;;;;;;;;;10308621;28;20079;-60
2023/06/12 00:16:20;;;;;;;6.90;5.55;;;;;;;;;;10308859;28;20076;-61
2023/06/12 00:21:19;;;;;;;5.82;4.28;;;;;;;;;;10309751;28;20075;-60
2023/06/12 00:26:19;;;;;;;4.40;4.00;;;;;;;;;;10307812;28;20064;-61
2023/06/12 00:31:19;;;;;;;7.30;5.22;;;;;;;;;;10309834;28;20072;-61
2023/06/12 00:36:17;;;;;;;4.78;4.22;;;;;;;;;;10307666;28;20075;-61
2023/06/12 00:41:15;;;;;;;6.78;4.25;;;;;;;;;;10308933;28;20075;-61
2023/06/12 00:46:15;;;;;;;6.80;4.80;;;;;;;;;;10311259;28;20479;-60
2023/06/12 00:51:13;;;;;;;7.95;4.50;;;;;;;;;;10314478;28;20481;-61
2023/06/12 00:56:13;;;;;;;5.38;4.85;;;;;;;;;;10315597;28;20075;-61
2023/06/12 01:01:11;;;;;;;5.07;4.57;;;;;;;;;;10317330;28;20088;-61
2023/06/12 01:06:13;;;;;;;11.45;6.57;;;;;;;;;;10315720;28;20528;-61
2023/06/12 01:11:12;;;;;;;8.73;5.70;;;;;;;;;;10313967;28;20173;-61
2023/06/12 01:16:12;;;;;;;7.55;4.97;;;;;;;;;;10312238;28;20465;-60
2023/06/12 01:21:17;;;;;;;5.65;5.05;;;;;;;;;;10310603;28;20068;-61
2023/06/12 01:26:26;;;;;;;10.35;6.13;;;;;;;;;;10310564;28;20090;-61
2023/06/12 01:31:27;;;;;;;6.03;4.80;;;;;;;;;;10305835;28;20068;-62
2023/06/12 01:36:32;;;;;;;9.63;5.43;;;;;;;;;;10314253;28;20103;-61
2023/06/12 01:41:32;;;;;;;10.95;6.57;;;;;;;;;;10307593;28;20076;-61
2023/06/12 01:46:32;;;;;;;8.73;6.18;;;;;;;;;;10314343;28;20059;-60
2023/06/12 01:51:32;;;;;;;7.97;6.38;;;;;;;;;;10298070;28;20509;-60
2023/06/12 01:56:33;;;;;;;9.50;6.22;;;;;;;;;;10310596;28;20182;-60
2023/06/12 02:01:33;;;;;;;8.52;6.10;;;;;;;;;;10311711;28;20080;-60
2023/06/12 02:06:33;;;;;;;7.25;6.55;;;;;;;;;;10304641;28;20122;-61
2023/06/12 02:11:32;;;;;;;7.47;5.78;;;;;;;;;;10311544;28;20056;-60
2023/06/12 02:16:31;;;;;;;11.02;7.63;;;;;;;;;;10310955;28;20056;-60
2023/06/12 02:21:29;;;;;;;8.80;6.95;;;;;;;;;;10311104;28;20044;-61
2023/06/12 02:26:29;;;;;;;9.00;7.50;;;;;;;;;;10313500;28;20098;-60
2023/06/12 02:31:28;;;;;;;10.35;6.68;;;;;;;;;;10310177;28;20072;-61
2023/06/12 02:36:26;;;;;;;9.13;7.55;;;;;;;;;;10310397;28;20099;-60
2023/06/12 02:41:25;;;;;;;9.52;8.05;;;;;;;;;;10311631;28;20068;-60
2023/06/12 02:46:25;;;;;;;9.25;7.63;;;;;;;;;;10311316;28;20064;-60
2023/06/12 02:51:23;;;;;;;13.02;7.80;;;;;;;;;;10323696;28;20067;-62
2023/06/12 02:56:26;;;;;;;11.10;8.32;;;;;;;;;;10308957;28;20643;-60
2023/06/12 03:01:26;;;;;;;10.38;8.85;;;;;;;;;;10313396;28;20092;-60
2023/06/12 03:06:28;;;;;;;12.57;8.90;;;;;;;;;;10311090;28;20076;-61
2023/06/12 03:11:27;;;;;;;10.07;8.73;;;;;;;;;;10308001;28;20075;-61
2023/06/12 03:16:26;;;;;;;10.93;9.73;;;;;;;;;;10300288;28;20079;-61
2023/06/12 03:21:26;;;;;;;11.68;9.90;;;;;;;;;;10307721;28;20072;-61
2023/06/12 03:26:24;;;;;;;12.38;9.50;;;;;;;;;;10310301;28;20063;-61
2023/06/12 03:31:26;;;;;;;12.55;10.13;;;;;;;;;;10307947;28;20068;-61
2023/06/12 03:36:28;;;;;;;13.50;10.15;;;;;;;;;;10305683;28;20083;-62
2023/06/12 03:41:32;;;;;;;11.07;9.60;;;;;;;;;;10304383;28;20072;-62
2023/06/12 03:46:35;;;;;;;12.38;9.85;;;;;;;;;;10306790;28;20072;-61
2023/06/12 03:51:35;;;;;;;10.70;9.80;;;;;;;;;;10308433;28;20064;-62
2023/06/12 03:56:34;;;;;;;15.10;9.13;;;;;;;;;;10301121;28;20084;-62
2023/06/12 04:01:33;;;;;;;11.27;10.23;;;;;;;;;;10308038;28;20114;-62
2023/06/12 04:06:32;;;;;;;14.32;9.98;;;;;;;;;;10309123;28;20049;-61
2023/06/12 04:11:34;;;;;;;10.25;9.25;;;;;;;;;;10301814;28;20072;-61
2023/06/12 04:16:34;;;;;;;11.40;8.80;;;;;;;;;;10307670;28;20052;-61
2023/06/12 04:21:33;;;;;;;10.02;9.02;;;;;;;;;;10311780;28;20787;-61
2023/06/12 04:26:34;;;;;;;11.25;8.77;;;;;;;;;;10315382;28;20072;-61
2023/06/12 04:31:33;;;;;;;11.32;9.10;;;;;;;;;;10318091;28;20048;-61
2023/06/12 04:36:33;;;;;;;12.50;8.48;;;;;;;;;;10315527;28;20083;-61
2023/06/12 04:41:32;;;;;;;12.65;8.90;;;;;;;;;;10317278;28;20072;-61
2023/06/12 04:46:33;;;;;;;13.98;8.23;;;;;;;;;;10315146;28;20514;-61
2023/06/12 04:51:32;;;;;;;11.10;7.03;;;;;;;;;;10331074;28;20494;-61
2023/06/12 04:56:31;;;;;;;12.45;6.82;;;;;;;;;;10314833;28;20205;-61
2023/06/12 05:01:33;;;;;;;10.95;7.05;;;;;;;;;;10309156;28;20209;-61
2023/06/12 05:06:32;;;;;;;13.27;6.90;;;;;;;;;;10315820;28;20068;-61
2023/06/12 05:11:32;;;;;;;9.90;6.55;;;;;;;;;;10312697;28;20103;-61
2023/06/12 05:16:32;;;;;;;9.13;7.70;;;;;;;;;;10318456;28;20076;-61
2023/06/12 05:21:32;;;;;;;10.10;6.82;;;;;;;;;;10311127;28;20076;-61
2023/06/12 05:26:30;;;;;;;13.65;7.57;;;;;;;;;;10314348;28;20060;-60
2023/06/12 05:31:29;;;;;;;12.18;7.05;;;;;;;;;;10313875;28;20068;-62
2023/06/12 05:36:28;;;;;;;10.65;7.65;;;;;;;;;;10305859;28;20068;-61
2023/06/12 05:41:28;;;;;;;9.13;7.30;;;;;;;;;;10312490;28;20132;-61
2023/06/12 05:46:29;;;;;;;12.02;6.60;;;;;;;;;;10312557;28;20076;-61
2023/06/12 05:51:27;;;;;;;14.23;7.00;;;;;;;;;;10312292;28;20068;-61
2023/06/12 05:56:26;;;;;;;7.57;6.55;;;;;;;;;;10312423;28;20162;-62
2023/06/12 06:01:31;;;;;;;17.60;6.60;;;;;;;;;;10308376;28;20091;-61
2023/06/12 06:06:30;;;;;;;8.50;6.22;;;;;;;;;;10303103;28;20474;-60
2023/06/12 06:11:31;;;;;;;10.70;5.47;;;;;;;;;;10307547;28;20076;-61
2023/06/12 06:16:32;;;;;;;11.00;5.95;;;;;;;;;;10309996;28;20518;-61
2023/06/12 06:21:50;;;;;;;6.88;5.53;;;;;;;;;;10311682;28;20956;-61
2023/06/12 06:26:48;;;;;;;8.55;5.57;;;;;;;;;;10314377;28;20053;-61
2023/06/12 06:31:48;;;;;;;11.05;5.90;;;;;;;;;;10313511;28;20072;-59
2023/06/12 06:36:47;;;;;;;11.13;5.82;;;;;;;;;;10307293;28;20072;-61
2023/06/12 06:41:45;;;;;;;8.35;5.53;;;;;;;;;;10309936;28;20083;-60
2023/06/12 06:46:43;;;;;;;10.38;5.68;;;;;;;;;;10306126;28;20072;-61
2023/06/12 06:51:43;;;;;;;5.88;4.65;;;;;;;;;;10305208;28;20081;-61
2023/06/12 06:56:42;;;;;;;6.00;5.03;;;;;;;;;;10309068;28;20091;-60
2023/06/12 07:01:40;;;;;;;5.10;4.60;;;;;;;;;;10312770;28;20079;-61
2023/06/12 07:06:38;;;;;;;9.70;7.38;;;;;;;;;;10305892;28;20467;-61
2023/06/12 07:11:38;;;;;;;7.45;5.70;;;;;;;;;;10312463;28;20564;-61
2023/06/12 07:16:36;;;;;;;7.18;5.35;;;;;;;;;;10304638;28;20068;-63
2023/06/12 07:21:35;;;;;;;9.65;5.47;;;;;;;;;;10310252;28;20468;-61
2023/06/12 07:26:33;;;;;;;6.97;5.10;;;;;;;;;;10311071;28;20087;-61
2023/06/12 07:31:37;;;;;;;9.57;5.13;;;;;;;;;;10302714;28;20080;-61
2023/06/12 07:36:36;;;;;;;11.63;4.88;;;;;;;;;;10310840;28;20079;-61
2023/06/12 07:41:39;;;;;;;8.90;4.70;;;;;;;;;;10311828;28;20083;-61
2023/06/12 07:46:39;;;;;;;8.13;5.10;;;;;;;;;;10308142;28;20079;-59
2023/06/12 07:51:37;;;;;;;9.02;4.93;;;;;;;;;;10308533;28;20106;-61
2023/06/12 07:56:37;;;;;;;9.80;5.35;;;;;;;;;;10301611;28;20076;-61
2023/06/12 08:01:36;;;;;;;11.60;5.07;;;;;;;;;;10299986;28;20080;-61
2023/06/12 08:06:37;;;;;;;6.90;5.13;;;;;;;;;;10306345;28;20502;-59
2023/06/12 08:11:36;;;;;;;5.43;4.55;;;;;;;;;;10308498;28;20080;-61
2023/06/12 08:16:34;;;;;;;7.97;4.45;;;;;;;;;;10305786;28;20075;-60
2023/06/12 08:21:33;;;;;;;9.32;4.43;;;;;;;;;;10300041;28;20072;-60
2023/06/12 08:26:33;;;;;;;7.18;4.55;;;;;;;;;;10308018;28;20076;-60
2023/06/12 08:31:33;;;;;;;9.40;5.22;;;;;;;;;;10296382;28;20075;-60
2023/06/12 08:36:35;;;;;;;12.93;9.88;;;;;;;;;;10297803;28;20096;-60
2023/06/12 08:41:36;;;;;;;8.52;5.20;;;;;;;;;;10305522;28;20064;-61
2023/06/12 08:46:35;;;;;;;5.88;4.68;;;;;;;;;;10297241;28;20076;-60
2023/06/12 08:51:33;;;;;;;6.10;5.05;;;;;;;;;;10297278;28;20079;-60
2023/06/12 08:56:32;;;;;;;8.10;5.55;;;;;;;;;;10302931;28;20068;-61
2023/06/12 09:01:34;;;;;;;6.90;4.70;;;;;;;;;;10294340;28;20091;-59
2023/06/12 09:06:34;;;;;;;12.82;5.65;;;;;;;;;;10290657;28;20478;-61
2023/06/12 09:11:35;;;;;;;15.02;4.95;;;;;;;;;;10306771;28;20076;-61
2023/06/12 09:16:34;;;;;;;13.30;7.95;;;;;;;;;;10309852;28;20072;-61
2023/06/12 09:21:33;;;;;;;9.15;5.00;;;;;;;;;;10309930;28;20067;-61
2023/06/12 09:26:31;;;;;;;11.07;5.03;;;;;;;;;;10310507;28;20064;-61
2023/06/12 09:31:30;;;;;;;17.75;7.22;;;;;;;;;;10309092;28;20075;-61
2023/06/12 09:36:31;;;;;;;6.40;4.43;;;;;;;;;;10307575;28;20083;-60
2023/06/12 09:41:30;;;;;;;5.95;4.63;;;;;;;;;;10305300;28;20083;-60
2023/06/12 09:46:28;;;;;;;4.63;4.20;;;;;;;;;;10299197;28;20076;-60
2023/06/12 09:51:27;;;;;;;4.32;3.60;;;;;;;;;;10299522;28;20533;-61
2023/06/12 09:56:28;;;;;;;10.00;5.22;;;;;;;;;;10307803;28;20084;-60
2023/06/12 10:01:27;;;;;;;5.90;4.28;;;;;;;;;;10309007;28;20533;-61
2023/06/12 10:06:27;;;;;;;9.32;4.35;;;;;;;;;;10305759;28;20063;-60
2023/06/12 10:11:27;;;;;;;8.25;4.47;;;;;;;;;;10308599;28;20068;-60
2023/06/12 10:16:26;;;;;;;9.38;4.78;;;;;;;;;;10301913;28;20087;-61
2023/06/12 10:21:27;;;;;;;6.60;4.07;;;;;;;;;;10304430;28;20071;-60
2023/06/12 10:26:27;;;;;;;5.63;4.65;;;;;;;;;;10314490;28;20473;-61
2023/06/12 10:31:29;;;;;;;5.85;4.45;;;;;;;;;;10300688;28;20631;-62
2023/06/12 10:36:39;;;;;;;7.55;4.88;;;;;;;;;;10295881;28;20064;-61
2023/06/12 10:41:39;;;;;;;5.00;4.38;;;;;;;;;;10301497;28;20060;-60
2023/06/12 10:46:44;;;;;;;11.13;5.10;;;;;;;;;;10305096;28;20072;-60
2023/06/12 10:51:47;;;;;;;10.73;5.03;;;;;;;;;;10301381;28;20478;-60
2023/06/12 10:57:03;;;;;;;8.23;4.97;;;;;;;;;;10300815;28;20087;-60
2023/06/12 11:02:13;;;;;;;7.30;4.43;;;;;;;;;;10305944;28;20090;-61
2023/06/12 11:07:16;;;;;;;7.82;5.20;;;;;;;;;;10301363;28;20518;-60
2023/06/12 11:12:19;;;;;;;8.23;5.85;;;;;;;;;;10302761;28;20486;-60
2023/06/12 11:17:17;;;;;;;7.60;6.15;;;;;;;;;;10296730;28;20075;-60
2023/06/12 11:22:16;;;;;;;10.70;6.70;;;;;;;;;;10298678;28;20072;-59
2023/06/12 11:27:19;;;;;;;6.72;6.13;;;;;;;;;;10310480;28;20092;-60
2023/06/12 11:32:17;;;;;;;8.05;5.28;;;;;;;;;;10299105;28;20071;-60
2023/06/12 11:37:16;;;;;;;12.55;6.55;;;;;;;;;;10303873;28;20080;-61
2023/06/12 11:42:16;;;;;;;5.68;4.15;;;;;;;;;;10303626;28;20064;-61
2023/06/12 11:47:16;;;;;;;6.95;5.60;;;;;;;;;;10292241;28;20083;-60
2023/06/12 11:52:17;;;;;;;7.63;5.00;;;;;;;;;;10297041;28;20672;-61
2023/06/12 11:57:16;;;;;;;13.52;6.50;;;;;;;;;;10299152;28;20088;-59
2023/06/12 12:02:16;;;;;;;9.48;5.85;;;;;;;;;;10303265;28;20080;-61
2023/06/12 12:07:14;;;;;;;8.75;6.75;;;;;;;;;;10302676;28;20052;-61
2023/06/12 12:12:12;;;;;;;10.80;6.80;;;;;;;;;;10301887;28;20060;-61
2023/06/12 12:17:11;;;;;;;11.27;6.20;;;;;;;;;;10301928;28;20087;-61
2023/06/12 12:22:11;;;;;;;8.77;7.40;;;;;;;;;;10311698;28;20071;-61
2023/06/12 12:27:12;;;;;;;6.63;5.05;;;;;;;;;;10298229;28;20075;-61
2023/06/12 12:32:11;;;;;;;6.80;5.47;;;;;;;;;;10299316;28;20459;-61
2023/06/12 12:37:11;;;;;;;11.27;6.18;;;;;;;;;;10293476;28;20080;-61
2023/06/12 12:42:10;;;;;;;9.23;5.00;;;;;;;;;;10301331;28;20068;-61
2023/06/12 12:47:08;;;;;;;5.85;5.28;;;;;;;;;;10300471;28;20067;-60
2023/06/12 12:52:07;;;;;;;6.63;5.38;;;;;;;;;;10307329;28;20540;-60
2023/06/12 12:57:07;;;;;;;9.05;5.43;;;;;;;;;;10316610;28;20095;-60
2023/06/12 13:02:06;;;;;;;10.10;5.22;;;;;;;;;;10316527;28;20088;-61
2023/06/12 13:07:04;;;;;;;5.20;4.70;;;;;;;;;;10320301;28;20080;-61
2023/06/12 13:12:03;;;;;;;7.18;5.05;;;;;;;;;;10318929;28;20528;-60
2023/06/12 13:17:02;;;;;;;9.80;4.85;;;;;;;;;;10319466;28;20064;-61
2023/06/12 13:22:01;;;;;;;8.30;5.20;;;;;;;;;;10317352;28;20061;-60
2023/06/12 13:26:59;;;;;;;6.88;4.80;;;;;;;;;;10319358;28;20086;-61
2023/06/12 13:31:57;;;;;;;8.85;5.35;;;;;;;;;;10319651;28;20072;-61
2023/06/12 13:36:57;;;;;;;7.32;4.88;;;;;;;;;;10318591;28;20130;-61
2023/06/12 13:41:56;;;;;;;5.95;5.03;;;;;;;;;;10318380;28;20056;-61
2023/06/12 13:46:54;;;;;;;8.38;4.95;;;;;;;;;;10318027;28;20068;-61
2023/06/12 13:51:53;;;;;;;7.38;4.63;;;;;;;;;;10317214;28;20078;-61
2023/06/12 13:56:54;;;;;;;7.88;5.38;;;;;;;;;;10318069;28;20486;-61
2023/06/12 14:01:54;;;;;;;6.13;4.65;;;;;;;;;;10315738;28;20076;-61
2023/06/12 14:06:52;;;;;;;7.18;5.70;;;;;;;;;;10315921;28;20429;-60
2023/06/12 14:11:53;;;;;;;5.35;4.60;;;;;;;;;;10317013;28;20068;-61
2023/06/12 14:16:52;;;;;;;8.10;4.38;;;;;;;;;;10315772;28;20095;-61
2023/06/12 14:21:51;;;;;;;9.63;4.53;;;;;;;;;;10317273;28;20079;-61
2023/06/12 14:26:49;;;;;;;7.68;4.75;;;;;;;;;;10316910;28;20075;-61
2023/06/12 14:31:47;;;;;;;11.13;5.82;;;;;;;;;;10316753;28;20079;-61
2023/06/12 14:36:47;;;;;;;9.13;5.13;;;;;;;;;;10314598;28;20091;-61
2023/06/12 14:41:45;;;;;;;5.97;4.75;;;;;;;;;;10316276;28;20079;-61
2023/06/12 14:46:43;;;;;;;6.35;4.85;;;;;;;;;;10316529;28;20075;-61
2023/06/12 14:51:42;;;;;;;7.05;4.32;;;;;;;;;;10315398;28;20072;-62
2023/06/12 14:56:41;;;;;;;13.15;5.13;;;;;;;;;;10315252;28;20068;-61
2023/06/12 15:01:40;;;;;;;6.47;4.20;;;;;;;;;;10314711;28;20106;-61
2023/06/12 15:06:39;;;;;;;11.13;4.22;;;;;;;;;;10314251;28;20727;-60
2023/06/12 15:11:37;;;;;;;6.93;4.50;;;;;;;;;;10315379;28;20094;-61
2023/06/12 15:16:37;;;;;;;5.82;4.13;;;;;;;;;;10315023;28;20064;-61
2023/06/12 15:21:35;;;;;;;5.13;4.25;;;;;;;;;;10312884;28;20064;-61
2023/06/12 15:26:34;;;;;;;14.65;6.82;;;;;;;;;;10314550;28;20068;-60
2023/06/12 15:31:32;;;;;;;8.20;5.15;;;;;;;;;;10313980;28;20173;-60
2023/06/12 15:36:32;;;;;;;10.52;5.00;;;;;;;;;;10314006;28;20067;-61
2023/06/12 15:41:30;;;;;;;13.25;5.50;;;;;;;;;;10313196;28;20076;-60
2023/06/12 15:46:28;;;;;;;6.70;4.68;;;;;;;;;;10313608;28;20087;-60
2023/06/12 15:51:26;;;;;;;7.15;4.82;;;;;;;;;;10313344;28;20485;-61
2023/06/12 15:56:27;;;;;;;9.60;5.07;;;;;;;;;;10311779;28;20072;-61
2023/06/12 16:01:26;;;;;;;15.38;5.13;;;;;;;;;;10313274;28;20446;-61
2023/06/12 16:06:24;;;;;;;9.10;4.85;;;;;;;;;;10313279;28;20072;-61
2023/06/12 16:11:24;;;;;;;8.98;4.70;;;;;;;;;;10313694;28;20071;-62
2023/06/12 16:16:23;;;;;;;6.20;4.93;;;;;;;;;;10316839;28;20060;-61
2023/06/12 16:21:23;;;;;;;5.75;5.15;;;;;;;;;;10320834;28;20075;-61
2023/06/12 16:26:21;;;;;;;8.60;4.88;;;;;;;;;;10320923;28;20064;-61
2023/06/12 16:31:20;;;;;;;6.50;4.18;;;;;;;;;;10320508;28;20076;-61
2023/06/12 16:36:20;;;;;;;6.90;4.45;;;;;;;;;;10318964;28;20076;-61
2023/06/12 16:41:18;;;;;;;9.50;5.88;;;;;;;;;;10318486;28;20072;-61
2023/06/12 16:46:18;;;;;;;13.80;5.30;;;;;;;;;;10320308;28;20079;-61
2023/06/12 16:51:18;;;;;;;9.93;4.90;;;;;;;;;;10320001;28;20072;-61
2023/06/12 16:56:17;;;;;;;8.82;3.50;;;;;;;;;;10320853;28;20080;-60
2023/06/12 17:01:16;;;;;;;4.82;3.70;;;;;;;;;;10319961;28;20687;-60
2023/06/12 17:06:14;;;;;;;7.18;3.65;;;;;;;;;;10319900;28;20668;-61
2023/06/12 17:11:12;;;;;;;9.13;4.13;;;;;;;;;;10319656;28;20064;-61
2023/06/12 17:16:12;;;;;;;6.85;3.50;;;;;;;;;;10319231;28;20063;-61
2023/06/12 17:21:10;;;;;;;5.70;3.20;;;;;;;;;;10318949;28;20489;-61
2023/06/12 17:26:09;;;;;;;5.80;4.00;;;;;;;;;;10317790;28;20068;-61
2023/06/12 17:31:07;;;;;;;5.30;3.38;;;;;;;;;;10311087;28;20076;-61
2023/06/12 17:36:10;;;;;;;7.28;2.97;;;;;;;;;;10311520;28;20487;-62
2023/06/12 17:41:08;;;;;;;6.03;3.45;;;;;;;;;;10309026;28;20099;-62
2023/06/12 17:46:06;;;;;;;8.45;3.70;;;;;;;;;;10308802;28;20466;-61
2023/06/12 17:51:05;;;;;;;6.88;4.13;;;;;;;;;;10312612;28;20076;-60
2023/06/12 17:56:04;;;;;;;7.35;3.83;;;;;;;;;;10308742;28;20095;-59
2023/06/12 18:01:02;;;;;;;9.70;3.83;;;;;;;;;;10310884;28;20091;-61
2023/06/12 18:06:01;;;;;;;9.80;5.43;;;;;;;;;;10314469;28;20462;-60
2023/06/12 18:10:59;;;;;;;6.28;3.75;;;;;;;;;;10311673;28;20466;-61
2023/06/12 18:15:59;;;;;;;6.80;4.50;;;;;;;;;;10293075;28;20060;-59
2023/06/12 18:20:57;;;;;;;5.90;3.92;;;;;;;;;;10308675;28;20091;-60
2023/06/12 18:25:55;;;;;;;9.82;3.90;;;;;;;;;;10313865;28;20080;-60
2023/06/12 18:30:53;;;;;;;7.40;3.83;;;;;;;;;;10310938;28;20459;-60
2023/06/12 18:35:53;;;;;;;6.53;3.83;;;;;;;;;;10308170;28;20098;-60
2023/06/12 18:40:51;;;;;;;6.05;3.40;;;;;;;;;;10312027;28;20075;-60
2023/06/12 18:45:50;;;;;;;4.13;3.63;;;;;;;;;;10308155;28;20091;-60
2023/06/12 18:50:48;;;;;;;6.15;3.45;;;;;;;;;;10308875;28;20064;-60
2023/06/12 18:55:48;;;;;;;5.70;3.53;;;;;;;;;;10305546;28;20079;-60
2023/06/12 19:00:46;;;;;;;3.88;3.20;;;;;;;;;;10308384;28;20075;-61
2023/06/12 19:05:44;;;;;;;3.85;3.35;;;;;;;;;;10308802;28;20080;-61
2023/06/12 19:10:42;;;;;;;4.53;2.80;;;;;;;;;;10305881;28;20462;-61
2023/06/12 19:15:42;;;;;;;3.40;2.60;;;;;;;;;;10310722;28;20073;-61
2023/06/12 19:20:40;;;;;;;10.38;3.97;;;;;;;;;;10313401;28;20082;-60
2023/06/12 19:25:38;;;;;;;7.60;2.80;;;;;;;;;;10314020;28;20102;-59
2023/06/12 19:30:37;;;;;;;237.98;220.18;;;;;;;;;;10312115;28;20530;-60
2023/06/12 19:35:36;;;;;;;8.25;2.90;;;;;;;;;;10309940;28;20079;-61
2023/06/12 19:40:34;;;;;;;2.45;2.05;;;;;;;;;;10311343;28;20082;-61
2023/06/12 19:45:33;;;;;;;3.70;1.95;;;;;;;;;;10312638;28;20072;-61
2023/06/12 19:50:31;;;;;;;4.65;2.15;;;;;;;;;;10312813;28;20068;-61
2023/06/12 19:55:31;;;;;;;8.57;1.80;;;;;;;;;;10311501;28;20080;-61
2023/06/12 20:00:29;;;;;;;5.95;2.20;;;;;;;;;;10307524;28;20079;-61
2023/06/12 20:05:27;;;;;;;6.93;2.05;;;;;;;;;;10303578;28;20158;-60
2023/06/12 20:10:25;;;;;;;3.10;2.10;;;;;;;;;;10310735;28;20079;-60
2023/06/12 20:15:25;;;;;;;3.08;2.17;;;;;;;;;;10311601;28;20065;-63
2023/06/12 20:20:23;;;;;;;6.68;1.73;;;;;;;;;;10325909;28;20485;-60
2023/06/12 20:25:22;;;;;;;2.20;1.55;;;;;;;;;;10312018;28;20072;-60
2023/06/12 20:30:21;;;;;;;3.45;1.90;;;;;;;;;;10311039;28;20080;-60
2023/06/12 20:35:23;;;;;;;2.25;1.50;;;;;;;;;;10307448;28;20068;-60
2023/06/12 20:40:21;;;;;;;1.70;1.45;;;;;;;;;;10309046;28;20087;-60
2023/06/12 20:45:20;;;;;;;5.18;1.70;;;;;;;;;;10310362;28;20049;-60
2023/06/12 20:50:18;;;;;;;3.22;1.58;;;;;;;;;;10311471;28;20083;-61
2023/06/12 20:55:18;;;;;;;8.13;1.40;;;;;;;;;;10305422;28;20080;-60
2023/06/12 21:00:16;;;;;;;8.43;2.17;;;;;;;;;;10310094;28;20076;-60
2023/06/12 21:05:14;;;;;;;1.27;1.17;;;;;;;;;;10320345;28;20096;-60
2023/06/12 21:10:17;;;;;;;2.50;1.83;;;;;;;;;;10319554;28;20071;-60
2023/06/12 21:15:16;;;;;;;4.00;1.48;;;;;;;;;;10319115;28;20087;-61
2023/06/12 21:20:17;;;;;;;5.50;1.70;;;;;;;;;;10318795;28;20466;-61
2023/06/12 21:25:17;;;;;;;5.05;1.55;;;;;;;;;;10318107;28;20068;-61
2023/06/12 21:30:17;;;;;;;3.17;1.83;;;;;;;;;;10318538;28;20064;-60
2023/06/12 21:35:15;;;;;;;5.15;1.50;;;;;;;;;;10319373;28;20094;-60
2023/06/12 21:40:14;;;;;;;2.88;1.75;;;;;;;;;;10318847;28;20076;-60
2023/06/12 21:45:12;;;;;;;6.78;1.92;;;;;;;;;;10315830;28;20076;-60
2023/06/12 21:50:13;;;;;;;4.45;1.33;;;;;;;;;;10315633;28;20083;-61
2023/06/12 21:55:11;;;;;;;4.63;1.52;;;;;;;;;;10315249;28;20071;-60
2023/06/12 22:00:11;;;;;;;7.93;1.88;;;;;;;;;;10315545;28;20084;-60
2023/06/12 22:05:13;;;;;;;4.55;1.77;;;;;;;;;;10317112;28;20055;-61
2023/06/12 22:10:12;;;;;;;2.50;1.40;;;;;;;;;;10309404;28;20075;-60
2023/06/12 22:15:11;;;;;;;2.63;1.27;;;;;;;;;;10317698;28;20505;-60
2023/06/12 22:20:11;;;;;;;2.95;1.50;;;;;;;;;;10316524;28;20079;-60
2023/06/12 22:25:10;;;;;;;2.85;1.45;;;;;;;;;;10316683;28;20106;-60
2023/06/12 22:30:09;;;;;;;4.95;1.60;;;;;;;;;;10314779;28;20064;-59
2023/06/12 22:35:08;;;;;;;3.22;1.30;;;;;;;;;;10316327;28;20071;-60
2023/06/12 22:40:07;;;;;;;3.70;1.30;;;;;;;;;;10316823;28;20084;-60
2023/06/12 22:45:07;;;;;;;2.72;1.50;;;;;;;;;;10314408;28;20286;-60
2023/06/12 22:50:06;;;;;;;4.90;1.48;;;;;;;;;;10315181;28;20537;-60
2023/06/12 22:55:05;;;;;;;1.40;1.30;;;;;;;;;;10315785;28;20079;-59
2023/06/12 23:00:03;;;;;;;2.03;1.63;;;;;;;;;;10315847;28;20079;-60
2023/06/12 23:05:03;;;;;;;8.10;1.73;;;;;;;;;;10314292;28;20084;-60
2023/06/12 23:10:02;;;;;;;4.13;1.33;;;;;;;;;;10314802;28;20075;-60
2023/06/12 23:15:00;;;;;;;1.83;1.10;;;;;;;;;;10312831;28;20157;-60
2023/06/12 23:20:01;;;;;;;5.13;1.55;;;;;;;;;;10312637;28;20104;-59
2023/06/12 23:25:01;;;;;;;1.00;1.00;;;;;;;;;;10314522;28;20477;-60
2023/06/12 23:30:00;;;;;;;1.40;1.30;;;;;;;;;;10315544;28;20079;-60
2023/06/12 23:34:58;;;;;;;3.45;1.27;;;;;;;;;;10313435;28;20076;-60
2023/06/12 23:39:57;;;;;;;3.70;1.27;;;;;;;;;;10312215;28;20083;-60
2023/06/12 23:44:56;;;;;;;2.58;1.02;;;;;;;;;;10315119;28;20071;-60
2023/06/12 23:49:54;;;;;;;3.70;1.15;;;;;;;;;;10314573;28;20127;-60
2023/06/12 23:54:53;;;;;;;2.28;1.55;;;;;;;;;;10314597;28;20060;-59
2023/06/12 23:59:51;;;;;;;4.15;1.30;;;;;;;;;;10311795;28;20454;-60
